CDT,Max TemperatureF,Mean TemperatureF,Min TemperatureF,Max Dew PointF,MeanDew PointF,Min DewpointF,Max Humidity, Mean Humidity, Min Humidity, Max Sea Level PressureIn, Mean Sea Level PressureIn, Min Sea Level PressureIn, Max VisibilityMiles, Mean VisibilityMiles, Min VisibilityMiles, Max Wind SpeedMPH, Mean Wind SpeedMPH, Max Gust SpeedMPH,PrecipitationIn, CloudCover, Events, WindDirDegrees
2013-9-1,99,83,66,62,54,48,59,40,20,29.89,29.84,29.79,10,10,10,21,8,26,0.00,3,,219
2013-9-2,92,82,71,64,60,53,79,54,28,30.11,29.95,29.87,10,10,10,17,9,23,T,4,Thunderstorm,60
2013-9-3,95,79,62,59,56,52,84,55,26,30.13,29.98,29.91,10,10,10,15,6,17,0.00,1,,122
2013-9-4,95,80,65,57,51,44,67,43,19,30.05,30.00,29.96,10,10,10,15,5,21,0.00,1,,104
2013-9-5,95,77,58,50,46,40,67,42,16,30.15,30.04,30.00,10,10,10,12,4,16,0.00,0,,99
2013-9-6,94,80,66,60,56,51,68,46,24,30.07,29.99,29.92,10,10,10,12,6,14,0.00,0,,178
2013-9-7,95,81,66,61,56,53,68,47,26,30.00,29.94,29.87,10,10,10,26,8,32,0.00,2,,188
2013-9-8,93,78,63,59,56,50,78,52,26,29.97,29.88,29.80,10,10,10,17,7,23,0.00,2,,148
2013-9-9,89,77,65,61,59,55,81,58,34,29.91,29.86,29.80,10,10,10,23,12,26,0.00,2,,165
2013-9-10,87,76,64,64,61,58,87,64,40,30.15,29.96,29.88,10,10,10,25,13,30,T,3,,154
2013-9-11,84,76,68,65,62,57,84,64,43,30.20,30.05,29.96,10,10,10,21,12,26,0.00,7,,148
2013-9-12,88,76,63,62,57,54,84,60,35,30.06,30.00,29.94,10,10,10,20,8,24,0.00,6,,134
2013-9-13,89,78,66,67,58,52,78,54,29,30.22,29.94,29.82,10,10,5,23,9,29,0.04,6,Rain,126
2013-9-14,90,77,63,66,60,50,100,65,29,30.07,29.91,29.82,10,7,2,18,9,23,0.00,5,,126
2013-9-15,90,79,68,58,54,50,53,40,27,30.11,29.91,29.84,10,10,10,22,12,26,0.00,5,Thunderstorm,181
2013-9-16,89,78,66,66,60,56,93,64,35,30.12,30.03,29.95,10,10,10,25,8,30,0.01,5,Rain-Thunderstorm,135
2013-9-17,84,75,66,65,62,58,93,67,40,30.05,29.99,29.91,10,10,10,23,12,28,0.00,6,,175
2013-9-18,88,78,67,65,61,57,87,62,36,29.93,29.87,29.79,10,10,10,24,15,37,0.00,5,,188
2013-9-19,79,73,67,67,63,61,84,74,64,30.05,29.91,29.82,10,10,8,21,13,24,0.03,7,Rain,174
2013-9-20,75,65,54,64,60,54,93,73,53,30.09,29.99,29.90,10,10,9,21,10,28,0.00,7,,49
2013-9-21,82,66,49,52,48,46,96,65,33,30.05,29.97,29.87,10,10,10,13,6,16,0.00,0,,124
2013-9-22,85,69,52,55,45,41,77,50,23,29.88,29.80,29.71,10,10,10,23,10,28,0.00,0,,174
2013-9-23,88,72,55,46,37,24,66,38,10,29.82,29.70,29.65,10,10,10,22,11,29,0.00,0,,257
2013-9-24,87,71,54,48,42,37,77,48,19,30.02,29.92,29.83,10,10,10,12,9,12,0.00,0,,85
2013-9-25,93,78,63,52,43,35,56,36,15,29.99,29.79,29.65,10,10,8,20,11,28,0.00,0,,181
2013-9-26,97,83,68,54,51,46,59,39,18,29.85,29.68,29.62,10,10,10,26,17,32,0.00,1,,184
2013-9-27,90,77,63,65,61,55,84,61,37,29.91,29.73,29.62,10,10,10,31,17,37,0.01,4,Thunderstorm,170
2013-9-28,76,64,52,65,49,38,84,56,27,30.14,29.96,29.72,10,9,2,26,12,33,0.45,4,Rain-Thunderstorm,358
2013-9-29,81,62,43,45,42,38,86,54,21,30.14,30.02,29.88,10,10,10,17,7,21,0.00,0,,224
2013-9-30,91,72,53,45,36,25,66,38,9,29.86,29.75,29.66,10,10,10,22,10,26,0.00,2,,242